Back to top

Boise, ID weather

Boise Air Terminal/Gowen Field, Boise, ID: 3/29/2020 20:53
Visibility10 statute milesclear sky
View 7-Day Forecast
Area Summary
Sky/CloudsSky Clear
Weather [last 24 hours]None [rain began 07:16 ended 07:49; rain began 08:13 ended 08:08 began 08:29 ended 08:44; rain began 11:20; rain ended 12:38 ]
Pressure29.92 in.Hg (1013 hPa)
3-hour Pressure Tendency0.008858 in.Hg (0.3 hPa) Decreasing or steady, then increasing; or increasing then increasing more rapidly
Dew Point35.1 °F (1.7 °C)
Relative Humidity60.6 %
Last 24-Hour Precip.0.08 in. (2.032 mm)
Reading TimePrecipitation
6-hr ending 3/29@17:530.04 in. (1.016 mm)
6-hr ending 3/29@11:530.04 in. (1.016 mm)
Temperature48 °F (8.9 °C)red thermometer
Wind Chill43.4 °F (6.35 °C)
Reading TimeMinimum to Maximum Temperature
6-hr ending 3/29@17:5344.1 °F to 55 °F (6.7 °C to 12.8 °C)
6-hr ending 3/29@11:5342.1 °F to 48.9 °F (5.6 °C to 9.4 °C)
6-hr ending 3/29@05:5342.1 °F to 45 °F (5.6 °C to 7.2 °C)
6-hr ending 3/28@23:5342.1 °F to 57 °F (5.6 °C to 13.9 °C)
24-hr ending 3/29@00:5335.1 °F to 57 °F (1.7 °C to 13.9 °C)
Wind10.4 MPH (9 KT) green arrow pointing 112.5 degrees
Wind FromEast/Southeast (110 Degrees)
Twilight Begins06:59Sunshine Yesterday
Sunrise07:28N/A
Sunset20:11
Twilight Ends20:40
METARKBOI 300253Z 11009KT 10SM CLR 09/02 A2992 RMK AO2 SLP134 T00890017 53003
Tags: